sensor_id;sensor_type;location;lat;lon;timestamp;pressure;altitude;pressure_sealevel;temperature;humidity
10852;BME280;5479;52.046;6.314;2023-01-28T00:01:45;102865.91;;;3.76;100.00
10852;BME280;5479;52.046;6.314;2023-01-28T00:04:13;102865.03;;;3.66;100.00
10852;BME280;5479;52.046;6.314;2023-01-28T00:06:42;102873.75;;;3.66;100.00
10852;BME280;5479;52.046;6.314;2023-01-28T00:09:10;102873.72;;;3.50;100.00
10852;BME280;5479;52.046;6.314;2023-01-28T00:11:38;102871.13;;;3.62;100.00
10852;BME280;5479;52.046;6.314;2023-01-28T00:14:06;102875.50;;;3.55;100.00
10852;BME280;5479;52.046;6.314;2023-01-28T00:16:34;102878.97;;;3.54;100.00
10852;BME280;5479;52.046;6.314;2023-01-28T00:19:04;102878.97;;;3.51;100.00
10852;BME280;5479;52.046;6.314;2023-01-28T00:21:32;102871.97;;;3.49;100.00
10852;BME280;5479;52.046;6.314;2023-01-28T00:24:01;102873.72;;;3.42;100.00
10852;BME280;5479;52.046;6.314;2023-01-28T00:26:29;102864.09;;;3.44;100.00
10852;BME280;5479;52.046;6.314;2023-01-28T00:28:57;102860.63;;;3.59;100.00
10852;BME280;5479;52.046;6.314;2023-01-28T00:31:26;102870.25;;;3.55;100.00
10852;BME280;5479;52.046;6.314;2023-01-28T00:33:55;102876.38;;;3.53;100.00
10852;BME280;5479;52.046;6.314;2023-01-28T00:36:25;102875.47;;;3.52;100.00
10852;BME280;5479;52.046;6.314;2023-01-28T00:38:54;102880.72;;;3.52;100.00
10852;BME280;5479;52.046;6.314;2023-01-28T00:41:25;102885.91;;;3.43;100.00
10852;BME280;5479;52.046;6.314;2023-01-28T00:43:54;102892.03;;;3.45;100.00
10852;BME280;5479;52.046;6.314;2023-01-28T00:46:23;102892.00;;;3.38;100.00
10852;BME280;5479;52.046;6.314;2023-01-28T00:48:51;102894.66;;;3.45;100.00
10852;BME280;5479;52.046;6.314;2023-01-28T00:51:20;102892.91;;;3.44;100.00
10852;BME280;5479;52.046;6.314;2023-01-28T00:53:50;102886.81;;;3.56;100.00
10852;BME280;5479;52.046;6.314;2023-01-28T00:56:19;102892.03;;;3.48;100.00
10852;BME280;5479;52.046;6.314;2023-01-28T00:58:47;102893.78;;;3.48;100.00
10852;BME280;5479;52.046;6.314;2023-01-28T01:01:19;102892.94;;;3.50;100.00
10852;BME280;5479;52.046;6.314;2023-01-28T01:03:47;102898.16;;;3.53;100.00
10852;BME280;5479;52.046;6.314;2023-01-28T01:06:23;102885.94;;;3.46;100.00
10852;BME280;5479;52.046;6.314;2023-01-28T01:08:53;102885.06;;;3.44;100.00
10852;BME280;5479;52.046;6.314;2023-01-28T01:11:21;102894.66;;;3.45;100.00
10852;BME280;5479;52.046;6.314;2023-01-28T01:13:50;102894.66;;;3.42;100.00
10852;BME280;5479;52.046;6.314;2023-01-28T01:16:22;102898.13;;;3.38;100.00
10852;BME280;5479;52.046;6.314;2023-01-28T01:18:50;102899.91;;;3.47;100.00
10852;BME280;5479;52.046;6.314;2023-01-28T01:21:21;102891.19;;;3.49;100.00
10852;BME280;5479;52.046;6.314;2023-01-28T01:23:50;102892.94;;;3.47;100.00
10852;BME280;5479;52.046;6.314;2023-01-28T01:26:20;102888.56;;;3.49;100.00
10852;BME280;5479;52.046;6.314;2023-01-28T01:28:49;102899.06;;;3.54;100.00
10852;BME280;5479;52.046;6.314;2023-01-28T01:31:19;102891.22;;;3.61;100.00
10852;BME280;5479;52.046;6.314;2023-01-28T01:33:49;102903.44;;;3.50;100.00
10852;BME280;5479;52.046;6.314;2023-01-28T01:36:17;102901.66;;;3.49;100.00
10852;BME280;5479;52.046;6.314;2023-01-28T01:38:51;102893.81;;;3.52;100.00
10852;BME280;5479;52.046;6.314;2023-01-28T01:41:25;102895.56;;;3.50;100.00
10852;BME280;5479;52.046;6.314;2023-01-28T01:43:55;102893.75;;;3.40;100.00
10852;BME280;5479;52.046;6.314;2023-01-28T01:46:29;102894.59;;;3.30;100.00
10852;BME280;5479;52.046;6.314;2023-01-28T01:49:05;102891.19;;;3.49;100.00
10852;BME280;5479;52.046;6.314;2023-01-28T01:51:35;102889.44;;;3.50;100.00
10852;BME280;5479;52.046;6.314;2023-01-28T01:54:04;102885.03;;;3.40;100.00
10852;BME280;5479;52.046;6.314;2023-01-28T01:56:38;102885.94;;;3.46;100.00
10852;BME280;5479;52.046;6.314;2023-01-28T01:59:09;102887.66;;;3.43;100.00
10852;BME280;5479;52.046;6.314;2023-01-28T02:01:38;102899.91;;;3.39;100.00
10852;BME280;5479;52.046;6.314;2023-01-28T02:04:10;102894.66;;;3.36;100.00
10852;BME280;5479;52.046;6.314;2023-01-28T02:06:40;102901.56;;;3.25;100.00
10852;BME280;5479;52.046;6.314;2023-01-28T02:09:22;102896.38;;;3.31;100.00
10852;BME280;5479;52.046;6.314;2023-01-28T02:11:53;102893.66;;;3.16;100.00
10852;BME280;5479;52.046;6.314;2023-01-28T02:14:26;102899.78;;;3.15;100.00
10852;BME280;5479;52.046;6.314;2023-01-28T02:16:55;102902.44;;;3.24;100.00
10852;BME280;5479;52.046;6.314;2023-01-28T02:19:25;102903.34;;;3.26;100.00
10852;BME280;5479;52.046;6.314;2023-01-28T02:22:06;102892.81;;;3.13;100.00
10852;BME280;5479;52.046;6.314;2023-01-28T02:24:53;102897.97;;;3.05;100.00
10852;BME280;5479;52.046;6.314;2023-01-28T02:27:34;102899.75;;;3.09;100.00
10852;BME280;5479;52.046;6.314;2023-01-28T02:30:10;102902.38;;;3.04;100.00
10852;BME280;5479;52.046;6.314;2023-01-28T02:32:45;102913.66;;;3.00;100.00
10852;BME280;5479;52.046;6.314;2023-01-28T02:35:23;102921.50;;;2.96;100.00
10852;BME280;5479;52.046;6.314;2023-01-28T02:38:00;102909.22;;;2.87;100.00
10852;BME280;5479;52.046;6.314;2023-01-28T02:40:33;102915.34;;;2.88;100.00
10852;BME280;5479;52.046;6.314;2023-01-28T02:43:32;102913.56;;;2.81;100.00
10852;BME280;5479;52.046;6.314;2023-01-28T02:46:09;102913.59;;;2.87;100.00
10852;BME280;5479;52.046;6.314;2023-01-28T02:48:56;102909.31;;;2.96;100.00
10852;BME280;5479;52.046;6.314;2023-01-28T02:51:33;102910.97;;;2.85;100.00
10852;BME280;5479;52.046;6.314;2023-01-28T02:54:10;102911.84;;;2.83;100.00
10852;BME280;5479;52.046;6.314;2023-01-28T02:56:44;102915.25;;;2.73;100.00
10852;BME280;5479;52.046;6.314;2023-01-28T02:59:22;102903.09;;;2.78;100.00
10852;BME280;5479;52.046;6.314;2023-01-28T03:02:09;102918.72;;;2.69;100.00
10852;BME280;5479;52.046;6.314;2023-01-28T03:04:43;102912.63;;;2.70;100.00
10852;BME280;5479;52.046;6.314;2023-01-28T03:07:15;102916.97;;;2.65;100.00
10852;BME280;5479;52.046;6.314;2023-01-28T03:09:45;102912.63;;;2.71;100.00
10852;BME280;5479;52.046;6.314;2023-01-28T03:12:19;102903.84;;;2.62;100.00
10852;BME280;5479;52.046;6.314;2023-01-28T03:15:09;102917.84;;;2.71;100.00
10852;BME280;5479;52.046;6.314;2023-01-28T03:18:00;102923.94;;;2.67;100.00
10852;BME280;5479;52.046;6.314;2023-01-28T03:20:53;102912.66;;;2.74;100.00
10852;BME280;5479;52.046;6.314;2023-01-28T03:23:48;102920.50;;;2.79;100.00
10852;BME280;5479;52.046;6.314;2023-01-28T03:26:42;102910.03;;;2.76;100.00
10852;BME280;5479;52.046;6.314;2023-01-28T03:29:30;102903.97;;;2.80;100.00
10852;BME280;5479;52.046;6.314;2023-01-28T03:32:18;102908.34;;;2.81;100.00
10852;BME280;5479;52.046;6.314;2023-01-28T03:35:08;102907.38;;;2.71;100.00
10852;BME280;5479;52.046;6.314;2023-01-28T03:37:55;102901.34;;;2.80;100.00
10852;BME280;5479;52.046;6.314;2023-01-28T03:40:25;102906.53;;;2.74;100.00
10852;BME280;5479;52.046;6.314;2023-01-28T03:42:53;102907.25;;;2.52;100.00
10852;BME280;5479;52.046;6.314;2023-01-28T03:45:22;102911.50;;;2.39;100.00
10852;BME280;5479;52.046;6.314;2023-01-28T03:47:50;102914.31;;;2.62;100.00
10852;BME280;5479;52.046;6.314;2023-01-28T03:50:19;102907.38;;;2.68;100.00
10852;BME280;5479;52.046;6.314;2023-01-28T03:52:47;102904.81;;;2.73;100.00
10852;BME280;5479;52.046;6.314;2023-01-28T03:55:15;102916.19;;;2.81;100.00
10852;BME280;5479;52.046;6.314;2023-01-28T03:57:43;102913.41;;;2.60;100.00
10852;BME280;5479;52.046;6.314;2023-01-28T04:00:12;102918.66;;;2.63;100.00
10852;BME280;5479;52.046;6.314;2023-01-28T04:02:42;102934.44;;;2.72;100.00
10852;BME280;5479;52.046;6.314;2023-01-28T04:05:10;102931.84;;;2.75;100.00
10852;BME280;5479;52.046;6.314;2023-01-28T04:07:42;102920.50;;;2.74;100.00
10852;BME280;5479;52.046;6.314;2023-01-28T04:10:10;102924.00;;;2.78;100.00
10852;BME280;5479;52.046;6.314;2023-01-28T04:12:38;102923.94;;;2.70;100.00
10852;BME280;5479;52.046;6.314;2023-01-28T04:15:07;102933.56;;;2.74;100.00
10852;BME280;5479;52.046;6.314;2023-01-28T04:17:43;102928.38;;;2.77;100.00
10852;BME280;5479;52.046;6.314;2023-01-28T04:20:12;102930.09;;;2.72;100.00
10852;BME280;5479;52.046;6.314;2023-01-28T04:22:40;102929.97;;;2.60;100.00
10852;BME280;5479;52.046;6.314;2023-01-28T04:25:10;102931.59;;;2.43;100.00
10852;BME280;5479;52.046;6.314;2023-01-28T04:27:38;102935.03;;;2.39;100.00
10852;BME280;5479;52.046;6.314;2023-01-28T04:30:07;102935.84;;;2.30;100.00
10852;BME280;5479;52.046;6.314;2023-01-28T04:32:35;102935.84;;;2.30;100.00
10852;BME280;5479;52.046;6.314;2023-01-28T04:35:03;102937.50;;;2.19;100.00
10852;BME280;5479;52.046;6.314;2023-01-28T04:37:31;102936.66;;;2.23;100.00
10852;BME280;5479;52.046;6.314;2023-01-28T04:39:59;102932.38;;;2.31;100.00
10852;BME280;5479;52.046;6.314;2023-01-28T04:42:28;102938.41;;;2.24;100.00
10852;BME280;5479;52.046;6.314;2023-01-28T04:44:56;102945.22;;;2.09;100.00
10852;BME280;5479;52.046;6.314;2023-01-28T04:47:24;102942.69;;;2.13;100.00
10852;BME280;5479;52.046;6.314;2023-01-28T04:49:52;102934.00;;;2.20;100.00
10852;BME280;5479;52.046;6.314;2023-01-28T04:52:20;102938.34;;;2.14;100.00
10852;BME280;5479;52.046;6.314;2023-01-28T04:54:48;102952.28;;;2.16;100.00
10852;BME280;5479;52.046;6.314;2023-01-28T04:57:16;102953.06;;;2.07;100.00
10852;BME280;5479;52.046;6.314;2023-01-28T04:59:45;102948.69;;;2.06;100.00
10852;BME280;5479;52.046;6.314;2023-01-28T05:02:13;102954.88;;;2.14;100.00
10852;BME280;5479;52.046;6.314;2023-01-28T05:04:40;102959.13;;;2.05;100.00
10852;BME280;5479;52.046;6.314;2023-01-28T05:07:09;102970.41;;;1.99;100.00
10852;BME280;5479;52.046;6.314;2023-01-28T05:09:37;102962.44;;;1.90;100.00
10852;BME280;5479;52.046;6.314;2023-01-28T05:12:05;102960.69;;;1.86;100.00
10852;BME280;5479;52.046;6.314;2023-01-28T05:14:33;102962.44;;;1.87;100.00
10852;BME280;5479;52.046;6.314;2023-01-28T05:17:02;102960.72;;;1.91;100.00
10852;BME280;5479;52.046;6.314;2023-01-28T05:19:30;102950.22;;;1.86;100.00
10852;BME280;5479;52.046;6.314;2023-01-28T05:21:58;102948.47;;;1.85;100.00
10852;BME280;5479;52.046;6.314;2023-01-28T05:24:26;102946.75;;;1.86;100.00
10852;BME280;5479;52.046;6.314;2023-01-28T05:26:54;102956.31;;;1.85;100.00
10852;BME280;5479;52.046;6.314;2023-01-28T05:29:22;102961.53;;;1.85;100.00
10852;BME280;5479;52.046;6.314;2023-01-28T05:31:49;102958.06;;;1.86;100.00
10852;BME280;5479;52.046;6.314;2023-01-28T05:34:19;102945.81;;;1.80;100.00
10852;BME280;5479;52.046;6.314;2023-01-28T05:36:46;102947.50;;;1.75;100.00
10852;BME280;5479;52.046;6.314;2023-01-28T05:39:14;102944.06;;;1.78;100.00
10852;BME280;5479;52.046;6.314;2023-01-28T05:41:42;102947.69;;;1.92;100.00
10852;BME280;5479;52.046;6.314;2023-01-28T05:44:10;102941.53;;;1.87;100.00
10852;BME280;5479;52.046;6.314;2023-01-28T05:46:38;102943.34;;;1.96;100.00
10852;BME280;5479;52.046;6.314;2023-01-28T05:49:11;102946.84;;;1.96;100.00
10852;BME280;5479;52.046;6.314;2023-01-28T05:51:40;102950.13;;;1.75;100.00
10852;BME280;5479;52.046;6.314;2023-01-28T05:54:08;102949.38;;;1.87;100.00
10852;BME280;5479;52.046;6.314;2023-01-28T05:56:36;102950.31;;;1.94;100.00
10852;BME280;5479;52.046;6.314;2023-01-28T05:59:05;102952.91;;;1.94;100.00
10852;BME280;5479;52.046;6.314;2023-01-28T06:01:33;102959.72;;;1.78;100.00
10852;BME280;5479;52.046;6.314;2023-01-28T06:04:01;102946.69;;;1.82;100.00
10852;BME280;5479;52.046;6.314;2023-01-28T06:06:29;102944.22;;;1.96;100.00
10852;BME280;5479;52.046;6.314;2023-01-28T06:08:59;102948.66;;;2.00;100.00
10852;BME280;5479;52.046;6.314;2023-01-28T06:11:27;102948.44;;;1.79;100.00
10852;BME280;5479;52.046;6.314;2023-01-28T06:13:54;102945.59;;;1.61;100.00
10852;BME280;5479;52.046;6.314;2023-01-28T06:16:22;102937.13;;;1.83;100.00
10852;BME280;5479;52.046;6.314;2023-01-28T06:18:50;102944.09;;;1.81;100.00
10852;BME280;5479;52.046;6.314;2023-01-28T06:21:18;102949.44;;;1.93;100.00
10852;BME280;5479;52.046;6.314;2023-01-28T06:23:46;102947.63;;;1.85;100.00
10852;BME280;5479;52.046;6.314;2023-01-28T06:26:15;102945.69;;;1.71;100.00
10852;BME280;5479;52.046;6.314;2023-01-28T06:28:43;102942.19;;;1.68;100.00
10852;BME280;5479;52.046;6.314;2023-01-28T06:31:11;102954.13;;;1.48;100.00
10852;BME280;5479;52.046;6.314;2023-01-28T06:33:39;102963.84;;;1.58;100.00
10852;BME280;5479;52.046;6.314;2023-01-28T06:36:07;102949.19;;;1.72;100.00
10852;BME280;5479;52.046;6.314;2023-01-28T06:38:35;102945.56;;;1.59;100.00
10852;BME280;5479;52.046;6.314;2023-01-28T06:41:03;102950.03;;;1.68;100.00
10852;BME280;5479;52.046;6.314;2023-01-28T06:43:33;102952.84;;;1.86;100.00
10852;BME280;5479;52.046;6.314;2023-01-28T06:46:01;102954.63;;;1.90;100.00
10852;BME280;5479;52.046;6.314;2023-01-28T06:48:29;102958.03;;;1.83;100.00
10852;BME280;5479;52.046;6.314;2023-01-28T06:50:56;102957.91;;;1.71;100.00
10852;BME280;5479;52.046;6.314;2023-01-28T06:53:24;102952.66;;;1.68;100.00
10852;BME280;5479;52.046;6.314;2023-01-28T06:55:52;102951.78;;;1.69;100.00
10852;BME280;5479;52.046;6.314;2023-01-28T06:58:20;102958.06;;;1.88;100.00
10852;BME280;5479;52.046;6.314;2023-01-28T07:00:49;102967.69;;;1.89;100.00
10852;BME280;5479;52.046;6.314;2023-01-28T07:03:17;102970.41;;;1.99;100.00
10852;BME280;5479;52.046;6.314;2023-01-28T07:05:45;102976.25;;;1.75;100.00
10852;BME280;5479;52.046;6.314;2023-01-28T07:08:13;102968.41;;;1.75;100.00
10852;BME280;5479;52.046;6.314;2023-01-28T07:10:42;102974.22;;;1.52;100.00
10852;BME280;5479;52.046;6.314;2023-01-28T07:13:10;102976.88;;;1.55;100.00
10852;BME280;5479;52.046;6.314;2023-01-28T07:15:38;102972.41;;;1.48;100.00
10852;BME280;5479;52.046;6.314;2023-01-28T07:18:07;102975.03;;;1.48;100.00
10852;BME280;5479;52.046;6.314;2023-01-28T07:20:35;102982.00;;;1.50;100.00
10852;BME280;5479;52.046;6.314;2023-01-28T07:23:03;102984.03;;;1.74;100.00
10852;BME280;5479;52.046;6.314;2023-01-28T07:25:31;102978.94;;;1.83;100.00
10852;BME280;5479;52.046;6.314;2023-01-28T07:27:58;102984.94;;;1.74;100.00
10852;BME280;5479;52.046;6.314;2023-01-28T07:30:26;102990.94;;;1.69;100.00
10852;BME280;5479;52.046;6.314;2023-01-28T07:32:55;102988.38;;;1.70;100.00
10852;BME280;5479;52.046;6.314;2023-01-28T07:35:25;103001.72;;;1.96;100.00
10852;BME280;5479;52.046;6.314;2023-01-28T07:37:55;102996.63;;;2.07;100.00
10852;BME280;5479;52.046;6.314;2023-01-28T07:40:24;103005.25;;;2.01;100.00
10852;BME280;5479;52.046;6.314;2023-01-28T07:42:52;103006.09;;;1.99;100.00
10852;BME280;5479;52.046;6.314;2023-01-28T07:45:21;103007.91;;;2.04;100.00
10852;BME280;5479;52.046;6.314;2023-01-28T07:47:54;103012.09;;;1.87;100.00
10852;BME280;5479;52.046;6.314;2023-01-28T07:50:22;103012.09;;;1.87;100.00
10852;BME280;5479;52.046;6.314;2023-01-28T07:52:52;102997.38;;;1.97;100.00
10852;BME280;5479;52.046;6.314;2023-01-28T07:55:20;102996.53;;;1.99;100.00
10852;BME280;5479;52.046;6.314;2023-01-28T07:57:49;103003.50;;;1.97;100.00
10852;BME280;5479;52.046;6.314;2023-01-28T08:00:18;103003.53;;;2.00;100.00
10852;BME280;5479;52.046;6.314;2023-01-28T08:02:47;103013.91;;;1.94;100.00
10852;BME280;5479;52.046;6.314;2023-01-28T08:05:16;103015.56;;;1.86;100.00
10852;BME280;5479;52.046;6.314;2023-01-28T08:07:45;103030.34;;;1.86;100.00
10852;BME280;5479;52.046;6.314;2023-01-28T08:10:16;103026.81;;;1.79;100.00
10852;BME280;5479;52.046;6.314;2023-01-28T08:12:51;103016.34;;;1.80;100.00
10852;BME280;5479;52.046;6.314;2023-01-28T08:15:19;103033.84;;;1.86;100.00
10852;BME280;5479;52.046;6.314;2023-01-28T08:17:47;103048.47;;;1.72;100.00
10852;BME280;5479;52.046;6.314;2023-01-28T08:20:16;103056.28;;;1.70;100.00
10852;BME280;5479;52.046;6.314;2023-01-28T08:22:44;103050.38;;;1.85;100.00
10852;BME280;5479;52.046;6.314;2023-01-28T08:25:11;103035.53;;;1.81;100.00
10852;BME280;5479;52.046;6.314;2023-01-28T08:27:41;103039.03;;;1.81;100.00
10852;BME280;5479;52.046;6.314;2023-01-28T08:30:10;103040.13;;;2.00;100.00
10852;BME280;5479;52.046;6.314;2023-01-28T08:32:38;103044.72;;;2.24;100.00
10852;BME280;5479;52.046;6.314;2023-01-28T08:35:07;103049.84;;;2.13;100.00
10852;BME280;5479;52.046;6.314;2023-01-28T08:37:35;103047.31;;;2.22;100.00
10852;BME280;5479;52.046;6.314;2023-01-28T08:40:03;103061.22;;;2.18;100.00
10852;BME280;5479;52.046;6.314;2023-01-28T08:42:31;103053.47;;;2.24;100.00
10852;BME280;5479;52.046;6.314;2023-01-28T08:45:00;103055.84;;;2.05;100.00
10852;BME280;5479;52.046;6.314;2023-01-28T08:47:29;103052.50;;;2.16;100.00
10852;BME280;5479;52.046;6.314;2023-01-28T08:49:57;103064.84;;;2.29;100.00
10852;BME280;5479;52.046;6.314;2023-01-28T08:52:25;103074.56;;;2.42;100.00
10852;BME280;5479;52.046;6.314;2023-01-28T08:54:53;103064.88;;;2.35;100.00
10852;BME280;5479;52.046;6.314;2023-01-28T08:57:21;103061.38;;;2.33;100.00
10852;BME280;5479;52.046;6.314;2023-01-28T08:59:49;103068.28;;;2.28;100.00
10852;BME280;5479;52.046;6.314;2023-01-28T09:02:18;103063.06;;;2.28;100.00
10852;BME280;5479;52.046;6.314;2023-01-28T09:04:46;103069.16;;;2.27;100.00
10852;BME280;5479;52.046;6.314;2023-01-28T09:07:13;103069.19;;;2.29;100.00
10852;BME280;5479;52.046;6.314;2023-01-28T09:09:41;103062.22;;;2.29;100.00
10852;BME280;5479;52.046;6.314;2023-01-28T09:12:09;103060.50;;;2.30;100.00
10852;BME280;5479;52.046;6.314;2023-01-28T09:14:37;103066.78;;;2.49;100.00
10852;BME280;5479;52.046;6.314;2023-01-28T09:17:05;103056.97;;;2.26;100.00
10852;BME280;5479;52.046;6.314;2023-01-28T09:19:34;103060.38;;;2.22;100.00
10852;BME280;5479;52.046;6.314;2023-01-28T09:22:02;103062.22;;;2.31;100.00
10852;BME280;5479;52.046;6.314;2023-01-28T09:24:30;103084.66;;;2.12;100.00
10852;BME280;5479;52.046;6.314;2023-01-28T09:26:58;103089.28;;;2.34;100.00
10852;BME280;5479;52.046;6.314;2023-01-28T09:29:26;103084.03;;;2.31;100.00
10852;BME280;5479;52.046;6.314;2023-01-28T09:31:54;103097.75;;;2.12;100.00
10852;BME280;5479;52.046;6.314;2023-01-28T09:34:22;103106.38;;;2.05;100.00
10852;BME280;5479;52.046;6.314;2023-01-28T09:36:52;103100.03;;;1.88;100.00
10852;BME280;5479;52.046;6.314;2023-01-28T09:39:19;103111.19;;;1.75;100.00
10852;BME280;5479;52.046;6.314;2023-01-28T09:41:58;103113.25;;;1.97;100.00
10852;BME280;5479;52.046;6.314;2023-01-28T09:44:37;103116.00;;;2.08;100.00
10852;BME280;5479;52.046;6.314;2023-01-28T09:47:17;103116.09;;;2.15;100.00
10852;BME280;5479;52.046;6.314;2023-01-28T09:49:49;103114.13;;;1.99;100.00
10852;BME280;5479;52.046;6.314;2023-01-28T09:52:22;103120.53;;;2.24;100.00
10852;BME280;5479;52.046;6.314;2023-01-28T09:54:54;103127.19;;;1.99;100.00
10852;BME280;5479;52.046;6.314;2023-01-28T09:57:24;103123.69;;;1.97;100.00
10852;BME280;5479;52.046;6.314;2023-01-28T09:59:53;103113.25;;;1.97;100.00
10852;BME280;5479;52.046;6.314;2023-01-28T10:02:36;103130.78;;;2.09;100.00
10852;BME280;5479;52.046;6.314;2023-01-28T10:05:16;103133.59;;;2.22;100.00
10852;BME280;5479;52.046;6.314;2023-01-28T10:07:56;103138.44;;;1.92;100.00
10852;BME280;5479;52.046;6.314;2023-01-28T10:10:30;103135.16;;;2.08;100.00
10852;BME280;5479;52.046;6.314;2023-01-28T10:13:05;103125.41;;;1.95;100.00
10852;BME280;5479;52.046;6.314;2023-01-28T10:15:53;103119.69;;;2.28;100.00
10852;BME280;5479;52.046;6.314;2023-01-28T10:18:33;103121.72;;;2.52;100.00
10852;BME280;5479;52.046;6.314;2023-01-28T10:21:07;103135.63;;;2.46;100.00
10852;BME280;5479;52.046;6.314;2023-01-28T10:23:47;103132.97;;;2.44;100.00
10852;BME280;5479;52.046;6.314;2023-01-28T10:26:23;103130.59;;;2.64;100.00
10852;BME280;5479;52.046;6.314;2023-01-28T10:28:54;103118.41;;;2.66;100.00
10852;BME280;5479;52.046;6.314;2023-01-28T10:31:29;103109.81;;;2.82;100.00
10852;BME280;5479;52.046;6.314;2023-01-28T10:33:58;103135.22;;;2.91;100.00
10852;BME280;5479;52.046;6.314;2023-01-28T10:36:26;103131.63;;;2.80;100.00
10852;BME280;5479;52.046;6.314;2023-01-28T10:38:55;103127.38;;;2.91;100.00
10852;BME280;5479;52.046;6.314;2023-01-28T10:41:23;103122.94;;;2.87;100.00
10852;BME280;5479;52.046;6.314;2023-01-28T10:43:52;103115.19;;;2.97;100.00
10852;BME280;5479;52.046;6.314;2023-01-28T10:46:22;103119.56;;;3.00;100.00
10852;BME280;5479;52.046;6.314;2023-01-28T10:48:58;103104.63;;;2.87;100.00
10852;BME280;5479;52.046;6.314;2023-01-28T10:51:30;103087.38;;;3.09;100.00
10852;BME280;5479;52.046;6.314;2023-01-28T10:53:59;103088.22;;;3.06;100.00
10852;BME280;5479;52.046;6.314;2023-01-28T10:56:29;103091.72;;;3.08;100.00
10852;BME280;5479;52.046;6.314;2023-01-28T10:59:01;103093.56;;;3.21;100.00
10852;BME280;5479;52.046;6.314;2023-01-28T11:01:40;103092.84;;;3.43;100.00
10852;BME280;5479;52.046;6.314;2023-01-28T11:04:20;103065.34;;;5.21;100.00
10852;BME280;5479;52.046;6.314;2023-01-28T11:07:15;103060.50;;;6.45;83.70
10852;BME280;5479;52.046;6.314;2023-01-28T11:09:46;103059.81;;;7.28;73.07
10852;BME280;5479;52.046;6.314;2023-01-28T11:12:19;103072.00;;;7.42;71.88
10852;BME280;5479;52.046;6.314;2023-01-28T11:14:51;103059.88;;;8.66;64.85
10852;BME280;5479;52.046;6.314;2023-01-28T11:17:21;103052.78;;;8.69;62.30
10852;BME280;5479;52.046;6.314;2023-01-28T11:19:52;103037.13;;;9.09;59.22
10852;BME280;5479;52.046;6.314;2023-01-28T11:22:26;103035.19;;;9.64;57.25
10852;BME280;5479;52.046;6.314;2023-01-28T11:25:00;103026.56;;;10.38;55.10
10852;BME280;5479;52.046;6.314;2023-01-28T11:27:30;103011.22;;;10.12;56.20
10852;BME280;5479;52.046;6.314;2023-01-28T11:30:00;102998.09;;;10.81;52.46
10852;BME280;5479;52.046;6.314;2023-01-28T11:32:30;102989.28;;;8.72;59.06
10852;BME280;5479;52.046;6.314;2023-01-28T11:34:58;102988.72;;;7.24;63.32
10852;BME280;5479;52.046;6.314;2023-01-28T11:37:27;102966.19;;;8.85;62.13
10852;BME280;5479;52.046;6.314;2023-01-28T11:40:14;102952.81;;;7.84;64.36
10852;BME280;5479;52.046;6.314;2023-01-28T11:42:45;102949.69;;;8.17;61.61
10852;BME280;5479;52.046;6.314;2023-01-28T11:45:15;102964.97;;;7.25;65.94
10852;BME280;5479;52.046;6.314;2023-01-28T11:47:52;102956.06;;;9.08;59.63
10852;BME280;5479;52.046;6.314;2023-01-28T11:50:33;102957.00;;;10.29;57.28
10852;BME280;5479;52.046;6.314;2023-01-28T11:56:37;102955.63;;;9.31;54.21
10852;BME280;5479;52.046;6.314;2023-01-28T11:59:22;102959.94;;;7.76;61.46
10852;BME280;5479;52.046;6.314;2023-01-28T12:01:58;102970.22;;;6.39;65.85
10852;BME280;5479;52.046;6.314;2023-01-28T12:04:47;102971.44;;;6.96;70.21
10852;BME280;5479;52.046;6.314;2023-01-28T12:07:32;102966.31;;;8.79;63.53
10852;BME280;5479;52.046;6.314;2023-01-28T12:10:08;102956.00;;;9.55;59.39
10852;BME280;5479;52.046;6.314;2023-01-28T12:12:52;102963.69;;;9.67;58.35
10852;BME280;5479;52.046;6.314;2023-01-28T12:15:38;102968.03;;;10.48;55.58
10852;BME280;5479;52.046;6.314;2023-01-28T12:18:21;102962.47;;;10.22;54.90
10852;BME280;5479;52.046;6.314;2023-01-28T12:20:58;102976.94;;;10.44;54.20
10852;BME280;5479;52.046;6.314;2023-01-28T12:23:47;102967.06;;;10.51;51.51
10852;BME280;5479;52.046;6.314;2023-01-28T12:26:27;102990.31;;;8.67;55.04
10852;BME280;5479;52.046;6.314;2023-01-28T12:29:09;102978.44;;;7.74;58.91
10852;BME280;5479;52.046;6.314;2023-01-28T12:32:01;102983.78;;;7.70;59.17
10852;BME280;5479;52.046;6.314;2023-01-28T12:34:56;102970.53;;;7.74;58.59
10852;BME280;5479;52.046;6.314;2023-01-28T12:37:37;102978.19;;;7.24;60.22
10852;BME280;5479;52.046;6.314;2023-01-28T12:40:18;102977.13;;;6.49;64.16
10852;BME280;5479;52.046;6.314;2023-01-28T12:42:53;102985.25;;;6.20;65.27
10852;BME280;5479;52.046;6.314;2023-01-28T12:45:32;102981.59;;;6.38;68.66
10852;BME280;5479;52.046;6.314;2023-01-28T12:48:08;102976.59;;;6.01;69.50
10852;BME280;5479;52.046;6.314;2023-01-28T12:50:41;102977.63;;;5.69;71.89
10852;BME280;5479;52.046;6.314;2023-01-28T12:53:21;102987.34;;;5.44;74.89
10852;BME280;5479;52.046;6.314;2023-01-28T12:55:54;102983.81;;;5.51;77.37
10852;BME280;5479;52.046;6.314;2023-01-28T12:58:34;102987.28;;;5.59;80.21
10852;BME280;5479;52.046;6.314;2023-01-28T13:01:07;102992.44;;;5.86;80.67
10852;BME280;5479;52.046;6.314;2023-01-28T13:03:40;102986.34;;;5.74;81.53
10852;BME280;5479;52.046;6.314;2023-01-28T13:06:11;102969.59;;;6.00;85.93
10852;BME280;5479;52.046;6.314;2023-01-28T13:08:40;102970.44;;;6.07;84.74
10852;BME280;5479;52.046;6.314;2023-01-28T13:11:12;102967.63;;;6.31;84.03
10852;BME280;5479;52.046;6.314;2023-01-28T13:13:42;102980.78;;;6.33;81.56
10852;BME280;5479;52.046;6.314;2023-01-28T13:16:14;102979.03;;;6.33;77.66
10852;BME280;5479;52.046;6.314;2023-01-28T13:18:43;102970.13;;;6.46;79.88
10852;BME280;5479;52.046;6.314;2023-01-28T13:21:27;102963.94;;;6.55;78.54
10852;BME280;5479;52.046;6.314;2023-01-28T13:24:04;102952.63;;;6.44;77.00
10852;BME280;5479;52.046;6.314;2023-01-28T13:26:41;102941.44;;;6.15;76.09
10852;BME280;5479;52.046;6.314;2023-01-28T13:29:20;102926.69;;;5.91;78.20
10852;BME280;5479;52.046;6.314;2023-01-28T13:31:51;102924.19;;;5.59;81.31